sensor_id;sensor_type;location;lat;lon;timestamp;pressure;altitude;pressure_sealevel;temperature;humidity
46614;BME280;32338;50.430;6.806;2023-09-19T00:02:27;66813.13;;;12.74;100.00
46614;BME280;32338;50.430;6.806;2023-09-19T00:04:54;66814.84;;;12.76;100.00
46614;BME280;32338;50.430;6.806;2023-09-19T00:07:21;66808.81;;;12.73;100.00
46614;BME280;32338;50.430;6.806;2023-09-19T00:09:48;66800.91;;;12.65;100.00
46614;BME280;32338;50.430;6.806;2023-09-19T00:12:14;66798.28;;;12.58;100.00
46614;BME280;32338;50.430;6.806;2023-09-19T00:14:41;66791.69;;;12.55;100.00
46614;BME280;32338;50.430;6.806;2023-09-19T00:17:07;66780.22;;;12.49;100.00
46614;BME280;32338;50.430;6.806;2023-09-19T00:19:36;66784.53;;;12.51;100.00
46614;BME280;32338;50.430;6.806;2023-09-19T00:22:03;66787.75;;;12.51;100.00
46614;BME280;32338;50.430;6.806;2023-09-19T00:24:30;66783.03;;;12.52;100.00
46614;BME280;32338;50.430;6.806;2023-09-19T00:26:57;66784.94;;;12.48;100.00
46614;BME280;32338;50.430;6.806;2023-09-19T00:29:25;66771.22;;;12.41;100.00
46614;BME280;32338;50.430;6.806;2023-09-19T00:31:54;66772.72;;;12.40;100.00
46614;BME280;32338;50.430;6.806;2023-09-19T00:34:21;66787.16;;;12.51;100.00
46614;BME280;32338;50.430;6.806;2023-09-19T00:36:50;66792.66;;;12.53;100.00
46614;BME280;32338;50.430;6.806;2023-09-19T00:39:18;66783.25;;;12.47;100.00
46614;BME280;32338;50.430;6.806;2023-09-19T00:41:45;66779.28;;;12.43;100.00
46614;BME280;32338;50.430;6.806;2023-09-19T00:44:12;66775.72;;;12.45;100.00
46614;BME280;32338;50.430;6.806;2023-09-19T00:46:41;66778.34;;;12.45;100.00
46614;BME280;32338;50.430;6.806;2023-09-19T00:49:08;66772.72;;;12.40;100.00
46614;BME280;32338;50.430;6.806;2023-09-19T00:51:36;66778.72;;;12.43;100.00
46614;BME280;32338;50.430;6.806;2023-09-19T00:54:05;66778.16;;;12.42;100.00
46614;BME280;32338;50.430;6.806;2023-09-19T00:56:31;66774.59;;;12.44;100.00
46614;BME280;32338;50.430;6.806;2023-09-19T00:58:58;66784.75;;;12.46;100.00
46614;BME280;32338;50.430;6.806;2023-09-19T01:01:25;66772.31;;;12.42;100.00
46614;BME280;32338;50.430;6.806;2023-09-19T01:03:51;66772.50;;;12.37;100.00
46614;BME280;32338;50.430;6.806;2023-09-19T01:06:19;66774.75;;;12.39;100.00
46614;BME280;32338;50.430;6.806;2023-09-19T01:08:46;66774.41;;;12.41;100.00
46614;BME280;32338;50.430;6.806;2023-09-19T01:11:20;66776.66;;;12.43;100.00
46614;BME280;32338;50.430;6.806;2023-09-19T01:13:58;66787.16;;;12.51;100.00
46614;BME280;32338;50.430;6.806;2023-09-19T01:16:32;66786.25;;;12.52;100.00
46614;BME280;32338;50.430;6.806;2023-09-19T01:19:22;66784.00;;;12.50;100.00
46614;BME280;32338;50.430;6.806;2023-09-19T01:21:58;66780.59;;;12.47;100.00
46614;BME280;32338;50.430;6.806;2023-09-19T01:24:55;66785.88;;;12.47;100.00
46614;BME280;32338;50.430;6.806;2023-09-19T01:27:47;66786.81;;;12.53;100.00
46614;BME280;32338;50.430;6.806;2023-09-19T01:30:24;66789.25;;;12.57;100.00
46614;BME280;32338;50.430;6.806;2023-09-19T01:32:55;66794.72;;;12.60;100.00
46614;BME280;32338;50.430;6.806;2023-09-19T01:35:22;66800.72;;;12.63;100.00
46614;BME280;32338;50.430;6.806;2023-09-19T01:37:49;66800.91;;;12.65;100.00
46614;BME280;32338;50.430;6.806;2023-09-19T01:40:18;66818.81;;;12.79;100.00
46614;BME280;32338;50.430;6.806;2023-09-19T01:42:52;66814.47;;;12.78;100.00
46614;BME280;32338;50.430;6.806;2023-09-19T01:45:26;66801.50;;;12.66;100.00
46614;BME280;32338;50.430;6.806;2023-09-19T01:48:05;66800.72;;;12.63;100.00
46614;BME280;32338;50.430;6.806;2023-09-19T01:50:43;66793.38;;;12.56;100.00
46614;BME280;32338;50.430;6.806;2023-09-19T01:53:17;66784.00;;;12.50;100.00
46614;BME280;32338;50.430;6.806;2023-09-19T01:55:49;66777.22;;;12.44;100.00
46614;BME280;32338;50.430;6.806;2023-09-19T01:58:20;66766.13;;;12.36;100.00
46614;BME280;32338;50.430;6.806;2023-09-19T02:00:49;66763.13;;;12.31;100.00
46614;BME280;32338;50.430;6.806;2023-09-19T02:03:18;66766.28;;;12.31;100.00
46614;BME280;32338;50.430;6.806;2023-09-19T02:05:49;66774.19;;;12.39;100.00
46614;BME280;32338;50.430;6.806;2023-09-19T02:08:17;66768.75;;;12.36;100.00
46614;BME280;32338;50.430;6.806;2023-09-19T02:10:44;66761.03;;;12.31;100.00
46614;BME280;32338;50.430;6.806;2023-09-19T02:13:14;66763.66;;;12.31;100.00
46614;BME280;32338;50.430;6.806;2023-09-19T02:15:42;66758.03;;;12.26;100.00
46614;BME280;32338;50.430;6.806;2023-09-19T02:18:10;66760.47;;;12.24;100.00
46614;BME280;32338;50.430;6.806;2023-09-19T02:20:37;66758.38;;;12.24;100.00
46614;BME280;32338;50.430;6.806;2023-09-19T02:23:04;66753.31;;;12.20;100.00
46614;BME280;32338;50.430;6.806;2023-09-19T02:25:31;66753.53;;;12.22;100.00
46614;BME280;32338;50.430;6.806;2023-09-19T02:27:58;66752.75;;;12.19;100.00
46614;BME280;32338;50.430;6.806;2023-09-19T02:30:26;66746.94;;;12.19;100.00
46614;BME280;32338;50.430;6.806;2023-09-19T02:32:53;66747.88;;;12.17;100.00
46614;BME280;32338;50.430;6.806;2023-09-19T02:35:21;66741.66;;;12.11;100.00
46614;BME280;32338;50.430;6.806;2023-09-19T02:37:46;66740.16;;;12.12;100.00
46614;BME280;32338;50.430;6.806;2023-09-19T02:40:14;66739.22;;;12.07;100.00
46614;BME280;32338;50.430;6.806;2023-09-19T02:42:45;66731.31;;;11.99;100.00
46614;BME280;32338;50.430;6.806;2023-09-19T02:45:14;66712.88;;;11.85;100.00
46614;BME280;32338;50.430;6.806;2023-09-19T02:47:41;66710.59;;;11.83;100.00
46614;BME280;32338;50.430;6.806;2023-09-19T02:50:09;66709.69;;;11.84;100.00
46614;BME280;32338;50.430;6.806;2023-09-19T02:52:37;66714.94;;;11.84;100.00
46614;BME280;32338;50.430;6.806;2023-09-19T02:55:04;66711.19;;;11.83;100.00
46614;BME280;32338;50.430;6.806;2023-09-19T02:57:31;66712.13;;;11.82;100.00
46614;BME280;32338;50.430;6.806;2023-09-19T03:00:00;66714.00;;;11.86;100.00
46614;BME280;32338;50.430;6.806;2023-09-19T03:02:27;66710.59;;;11.83;100.00
46614;BME280;32338;50.430;6.806;2023-09-19T03:04:54;66723.41;;;11.92;100.00
46614;BME280;32338;50.430;6.806;2023-09-19T03:07:22;66719.28;;;11.93;100.00
46614;BME280;32338;50.430;6.806;2023-09-19T03:09:51;66704.97;;;11.78;100.00
46614;BME280;32338;50.430;6.806;2023-09-19T03:12:18;66709.50;;;11.82;100.00
46614;BME280;32338;50.430;6.806;2023-09-19T03:14:45;66705.75;;;11.81;100.00
46614;BME280;32338;50.430;6.806;2023-09-19T03:17:12;66712.50;;;11.80;100.00
46614;BME280;32338;50.430;6.806;2023-09-19T03:19:40;66699.34;;;11.73;100.00
46614;BME280;32338;50.430;6.806;2023-09-19T03:22:06;66705.34;;;11.76;100.00
46614;BME280;32338;50.430;6.806;2023-09-19T03:24:34;66707.41;;;11.75;100.00
46614;BME280;32338;50.430;6.806;2023-09-19T03:27:04;66722.31;;;11.98;100.00
46614;BME280;32338;50.430;6.806;2023-09-19T03:29:30;66720.78;;;11.92;100.00
46614;BME280;32338;50.430;6.806;2023-09-19T03:31:57;66722.28;;;11.91;100.00
46614;BME280;32338;50.430;6.806;2023-09-19T03:34:24;66715.31;;;11.90;100.00
46614;BME280;32338;50.430;6.806;2023-09-19T03:36:51;66702.16;;;11.75;100.00
46614;BME280;32338;50.430;6.806;2023-09-19T03:39:18;66712.69;;;11.82;100.00
46614;BME280;32338;50.430;6.806;2023-09-19T03:41:44;66701.22;;;11.77;100.00
46614;BME280;32338;50.430;6.806;2023-09-19T03:44:12;66696.69;;;11.65;100.00
46614;BME280;32338;50.430;6.806;2023-09-19T03:46:40;66678.28;;;11.51;100.00
46614;BME280;32338;50.430;6.806;2023-09-19T03:49:07;66673.97;;;11.49;100.00
46614;BME280;32338;50.430;6.806;2023-09-19T03:51:33;66671.69;;;11.47;100.00
46614;BME280;32338;50.430;6.806;2023-09-19T03:54:00;66671.88;;;11.43;100.00
46614;BME280;32338;50.430;6.806;2023-09-19T03:56:28;66666.63;;;11.43;100.00
46614;BME280;32338;50.430;6.806;2023-09-19T03:58:54;66666.06;;;11.42;100.00
46614;BME280;32338;50.430;6.806;2023-09-19T04:01:22;66667.56;;;11.41;100.00
46614;BME280;32338;50.430;6.806;2023-09-19T04:03:49;66657.97;;;11.32;100.00
46614;BME280;32338;50.430;6.806;2023-09-19T04:06:17;66636.94;;;11.18;100.00
46614;BME280;32338;50.430;6.806;2023-09-19T04:08:44;66627.91;;;11.10;100.00
46614;BME280;32338;50.430;6.806;2023-09-19T04:11:11;66630.91;;;11.08;100.00
46614;BME280;32338;50.430;6.806;2023-09-19T04:13:38;66634.84;;;11.11;100.00
46614;BME280;32338;50.430;6.806;2023-09-19T04:16:04;66633.53;;;11.08;100.00
46614;BME280;32338;50.430;6.806;2023-09-19T04:18:33;66631.69;;;11.11;100.00
46614;BME280;32338;50.430;6.806;2023-09-19T04:21:02;66630.91;;;11.08;100.00
46614;BME280;32338;50.430;6.806;2023-09-19T04:23:30;66630.75;;;11.12;100.00
46614;BME280;32338;50.430;6.806;2023-09-19T04:25:57;66625.09;;;11.07;100.00
46614;BME280;32338;50.430;6.806;2023-09-19T04:28:23;66626.78;;;11.09;100.00
46614;BME280;32338;50.430;6.806;2023-09-19T04:30:50;66628.66;;;11.06;100.00
46614;BME280;32338;50.430;6.806;2023-09-19T04:33:17;66628.28;;;11.08;100.00
46614;BME280;32338;50.430;6.806;2023-09-19T04:35:45;66631.09;;;11.10;100.00
46614;BME280;32338;50.430;6.806;2023-09-19T04:38:15;66629.41;;;11.09;100.00
46614;BME280;32338;50.430;6.806;2023-09-19T04:40:41;66630.00;;;11.09;100.00
46614;BME280;32338;50.430;6.806;2023-09-19T04:43:08;66628.84;;;11.08;100.00
46614;BME280;32338;50.430;6.806;2023-09-19T04:45:34;66636.00;;;11.12;100.00
46614;BME280;32338;50.430;6.806;2023-09-19T04:48:01;66629.41;;;11.09;100.00
46614;BME280;32338;50.430;6.806;2023-09-19T04:50:28;66627.72;;;11.07;100.00
46614;BME280;32338;50.430;6.806;2023-09-19T04:52:56;66624.91;;;11.05;100.00
46614;BME280;32338;50.430;6.806;2023-09-19T04:55:22;66623.41;;;10.98;100.00
46614;BME280;32338;50.430;6.806;2023-09-19T04:57:50;66619.28;;;10.99;100.00
46614;BME280;32338;50.430;6.806;2023-09-19T05:00:19;66609.50;;;10.88;100.00
46614;BME280;32338;50.430;6.806;2023-09-19T05:02:49;66612.50;;;10.93;100.00
46614;BME280;32338;50.430;6.806;2023-09-19T05:05:16;66605.16;;;10.86;100.00
46614;BME280;32338;50.430;6.806;2023-09-19T05:07:44;66600.31;;;10.84;100.00
46614;BME280;32338;50.430;6.806;2023-09-19T05:10:12;66606.09;;;10.85;100.00
46614;BME280;32338;50.430;6.806;2023-09-19T05:12:39;66601.25;;;10.83;100.00
46614;BME280;32338;50.430;6.806;2023-09-19T05:15:07;66612.88;;;10.91;100.00
46614;BME280;32338;50.430;6.806;2023-09-19T05:17:34;66602.94;;;10.84;100.00
46614;BME280;32338;50.430;6.806;2023-09-19T05:20:01;66604.97;;;10.84;100.00
46614;BME280;32338;50.430;6.806;2023-09-19T05:22:40;66595.97;;;10.76;100.00
46614;BME280;32338;50.430;6.806;2023-09-19T05:25:08;66593.34;;;10.76;100.00
46614;BME280;32338;50.430;6.806;2023-09-19T05:27:36;66595.97;;;10.76;100.00
46614;BME280;32338;50.430;6.806;2023-09-19T05:30:03;66598.78;;;10.78;100.00
46614;BME280;32338;50.430;6.806;2023-09-19T05:32:32;66592.22;;;10.75;100.00
46614;BME280;32338;50.430;6.806;2023-09-19T05:34:58;66593.91;;;10.76;100.00
46614;BME280;32338;50.430;6.806;2023-09-19T05:37:25;66606.50;;;10.83;100.00
46614;BME280;32338;50.430;6.806;2023-09-19T05:39:52;66594.09;;;10.79;100.00
46614;BME280;32338;50.430;6.806;2023-09-19T05:42:19;66616.25;;;10.94;100.00
46614;BME280;32338;50.430;6.806;2023-09-19T05:44:47;66623.78;;;11.03;100.00
46614;BME280;32338;50.430;6.806;2023-09-19T05:47:13;66618.16;;;10.98;100.00
46614;BME280;32338;50.430;6.806;2023-09-19T05:49:40;66616.81;;;10.95;100.00
46614;BME280;32338;50.430;6.806;2023-09-19T05:52:08;66611.38;;;10.92;100.00
46614;BME280;32338;50.430;6.806;2023-09-19T05:54:34;66610.25;;;10.91;100.00
46614;BME280;32338;50.430;6.806;2023-09-19T05:57:03;66623.03;;;11.00;100.00
46614;BME280;32338;50.430;6.806;2023-09-19T05:59:29;66637.69;;;11.14;100.00
46614;BME280;32338;50.430;6.806;2023-09-19T06:01:57;66638.44;;;11.17;100.00
46614;BME280;32338;50.430;6.806;2023-09-19T06:04:24;66647.06;;;11.20;100.00
46614;BME280;32338;50.430;6.806;2023-09-19T06:06:51;66647.84;;;11.23;100.00
46614;BME280;32338;50.430;6.806;2023-09-19T06:09:18;66648.59;;;11.26;100.00
46614;BME280;32338;50.430;6.806;2023-09-19T06:11:45;66647.06;;;11.20;100.00
46614;BME280;32338;50.430;6.806;2023-09-19T06:14:12;66650.06;;;11.25;100.00
46614;BME280;32338;50.430;6.806;2023-09-19T06:16:38;66645.75;;;11.24;100.00
46614;BME280;32338;50.430;6.806;2023-09-19T06:19:07;66633.91;;;11.13;100.00
46614;BME280;32338;50.430;6.806;2023-09-19T06:21:35;66636.53;;;11.13;100.00
46614;BME280;32338;50.430;6.806;2023-09-19T06:24:02;66654.22;;;11.31;100.00
46614;BME280;32338;50.430;6.806;2023-09-19T06:26:29;66661.19;;;11.40;100.00
46614;BME280;32338;50.430;6.806;2023-09-19T06:28:56;66681.66;;;11.54;100.00
46614;BME280;32338;50.430;6.806;2023-09-19T06:31:22;66659.84;;;11.36;100.00
46614;BME280;32338;50.430;6.806;2023-09-19T06:33:51;66678.63;;;11.49;100.00
46614;BME280;32338;50.430;6.806;2023-09-19T06:36:19;66678.84;;;11.51;100.00
46614;BME280;32338;50.430;6.806;2023-09-19T06:38:46;66677.72;;;11.50;100.00
46614;BME280;32338;50.430;6.806;2023-09-19T06:41:16;66674.16;;;11.52;100.00
46614;BME280;32338;50.430;6.806;2023-09-19T06:43:43;66695.38;;;11.69;100.00
46614;BME280;32338;50.430;6.806;2023-09-19T06:46:10;66677.53;;;11.55;100.00
46614;BME280;32338;50.430;6.806;2023-09-19T06:48:38;66688.06;;;11.62;100.00
46614;BME280;32338;50.430;6.806;2023-09-19T06:51:04;66680.72;;;11.56;100.00
46614;BME280;32338;50.430;6.806;2023-09-19T06:53:32;66682.41;;;11.57;100.00
46614;BME280;32338;50.430;6.806;2023-09-19T06:56:00;66676.00;;;11.49;100.00
46614;BME280;32338;50.430;6.806;2023-09-19T06:58:27;66664.00;;;11.43;100.00
46614;BME280;32338;50.430;6.806;2023-09-19T07:00:54;66665.50;;;11.42;100.00
46614;BME280;32338;50.430;6.806;2023-09-19T07:03:21;66670.56;;;11.46;100.00
46614;BME280;32338;50.430;6.806;2023-09-19T07:05:51;66673.19;;;11.46;100.00
46614;BME280;32338;50.430;6.806;2023-09-19T07:08:21;66668.31;;;11.44;100.00
46614;BME280;32338;50.430;6.806;2023-09-19T07:10:49;66679.41;;;11.52;100.00
46614;BME280;32338;50.430;6.806;2023-09-19T07:13:19;66681.66;;;11.54;100.00
46614;BME280;32338;50.430;6.806;2023-09-19T07:15:46;66686.38;;;11.61;100.00
46614;BME280;32338;50.430;6.806;2023-09-19T07:18:13;66677.34;;;11.52;100.00
46614;BME280;32338;50.430;6.806;2023-09-19T07:20:41;66719.25;;;11.86;100.00
46614;BME280;32338;50.430;6.806;2023-09-19T07:23:11;66729.81;;;12.00;100.00
46614;BME280;32338;50.430;6.806;2023-09-19T07:25:39;66726.44;;;11.97;100.00
46614;BME280;32338;50.430;6.806;2023-09-19T07:28:07;66732.44;;;12.00;100.00
46614;BME280;32338;50.430;6.806;2023-09-19T07:30:36;66735.84;;;12.04;100.00
46614;BME280;32338;50.430;6.806;2023-09-19T07:33:04;66739.22;;;12.07;100.00
46614;BME280;32338;50.430;6.806;2023-09-19T07:35:31;66724.16;;;11.95;100.00
46614;BME280;32338;50.430;6.806;2023-09-19T07:37:58;66735.28;;;12.03;100.00
46614;BME280;32338;50.430;6.806;2023-09-19T07:40:27;66730.75;;;11.99;100.00
46614;BME280;32338;50.430;6.806;2023-09-19T07:42:54;66731.72;;;12.05;100.00
46614;BME280;32338;50.430;6.806;2023-09-19T07:45:22;66739.97;;;12.10;100.00
46614;BME280;32338;50.430;6.806;2023-09-19T07:47:50;66753.53;;;12.22;100.00
46614;BME280;32338;50.430;6.806;2023-09-19T07:50:18;66768.00;;;12.40;100.00
46614;BME280;32338;50.430;6.806;2023-09-19T07:52:46;66782.47;;;12.44;100.00
46614;BME280;32338;50.430;6.806;2023-09-19T07:55:12;66767.81;;;12.38;100.00
46614;BME280;32338;50.430;6.806;2023-09-19T07:57:41;66782.09;;;12.46;100.00
46614;BME280;32338;50.430;6.806;2023-09-19T08:00:10;66773.66;;;12.45;100.00
46614;BME280;32338;50.430;6.806;2023-09-19T08:02:38;66789.63;;;12.55;100.00
46614;BME280;32338;50.430;6.806;2023-09-19T08:05:06;66785.31;;;12.54;100.00
46614;BME280;32338;50.430;6.806;2023-09-19T08:07:35;66799.22;;;12.64;100.00
46614;BME280;32338;50.430;6.806;2023-09-19T08:10:02;66828.41;;;12.88;100.00
46614;BME280;32338;50.430;6.806;2023-09-19T08:12:29;66812.59;;;12.74;100.00
46614;BME280;32338;50.430;6.806;2023-09-19T08:14:56;66803.53;;;12.65;100.00
46614;BME280;32338;50.430;6.806;2023-09-19T08:17:23;66823.31;;;12.84;100.00
46614;BME280;32338;50.430;6.806;2023-09-19T08:19:51;66832.91;;;12.92;100.00
46614;BME280;32338;50.430;6.806;2023-09-19T08:22:18;66824.63;;;12.87;100.00
46614;BME280;32338;50.430;6.806;2023-09-19T08:24:45;66826.50;;;12.91;100.00
46614;BME280;32338;50.430;6.806;2023-09-19T08:27:13;66804.50;;;12.71;100.00
46614;BME280;32338;50.430;6.806;2023-09-19T08:29:40;66818.59;;;12.77;100.00
46614;BME280;32338;50.430;6.806;2023-09-19T08:32:07;66808.25;;;12.72;100.00
46614;BME280;32338;50.430;6.806;2023-09-19T08:34:34;66802.22;;;12.69;100.00
46614;BME280;32338;50.430;6.806;2023-09-19T08:37:05;66805.44;;;12.70;100.00
46614;BME280;32338;50.430;6.806;2023-09-19T08:39:31;66817.84;;;12.81;100.00
46614;BME280;32338;50.430;6.806;2023-09-19T08:42:01;66834.22;;;12.96;100.00
46614;BME280;32338;50.430;6.806;2023-09-19T08:44:28;66867.91;;;13.24;100.00
46614;BME280;32338;50.430;6.806;2023-09-19T08:47:01;66870.53;;;13.24;100.00
46614;BME280;32338;50.430;6.806;2023-09-19T08:49:37;66868.50;;;13.32;100.00
46614;BME280;32338;50.430;6.806;2023-09-19T08:52:16;66868.69;;;13.35;100.00
46614;BME280;32338;50.430;6.806;2023-09-19T08:54:47;66890.16;;;13.47;100.00
46614;BME280;32338;50.430;6.806;2023-09-19T08:57:15;66911.44;;;13.71;100.00
46614;BME280;32338;50.430;6.806;2023-09-19T08:59:47;66941.38;;;13.91;100.00
46614;BME280;32338;50.430;6.806;2023-09-19T09:02:16;66905.97;;;13.61;100.00
46614;BME280;32338;50.430;6.806;2023-09-19T09:04:45;66945.53;;;13.98;100.00
46614;BME280;32338;50.430;6.806;2023-09-19T09:07:14;66971.53;;;14.21;100.00
46614;BME280;32338;50.430;6.806;2023-09-19T09:09:42;66970.94;;;14.21;100.00
46614;BME280;32338;50.430;6.806;2023-09-19T09:12:11;66948.16;;;14.05;100.00
46614;BME280;32338;50.430;6.806;2023-09-19T09:14:39;66921.03;;;13.73;100.00
46614;BME280;32338;50.430;6.806;2023-09-19T09:17:05;66890.53;;;13.52;100.00
46614;BME280;32338;50.430;6.806;2023-09-19T09:19:32;66902.41;;;13.56;100.00
46614;BME280;32338;50.430;6.806;2023-09-19T09:22:06;66924.25;;;13.81;100.00
46614;BME280;32338;50.430;6.806;2023-09-19T09:24:34;66926.69;;;13.78;100.00
46614;BME280;32338;50.430;6.806;2023-09-19T09:27:04;66909.94;;;13.65;100.00
46614;BME280;32338;50.430;6.806;2023-09-19T09:29:43;66960.59;;;14.16;100.00
46614;BME280;32338;50.430;6.806;2023-09-19T09:32:19;66965.88;;;14.16;100.00
46614;BME280;32338;50.430;6.806;2023-09-19T09:34:48;66961.56;;;14.15;100.00
46614;BME280;32338;50.430;6.806;2023-09-19T09:37:16;66968.50;;;14.16;100.00
46614;BME280;32338;50.430;6.806;2023-09-19T09:39:50;66977.91;;;14.30;100.00
46614;BME280;32338;50.430;6.806;2023-09-19T09:42:32;67003.19;;;14.50;100.00
46614;BME280;32338;50.430;6.806;2023-09-19T09:47:41;67031.28;;;14.73;100.00
46614;BME280;32338;50.430;6.806;2023-09-19T09:50:24;67016.75;;;14.63;100.00
46614;BME280;32338;50.430;6.806;2023-09-19T09:52:54;66999.22;;;14.47;100.00
46614;BME280;32338;50.430;6.806;2023-09-19T09:55:27;66997.53;;;14.45;100.00
46614;BME280;32338;50.430;6.806;2023-09-19T09:58:16;66967.56;;;14.18;100.00
46614;BME280;32338;50.430;6.806;2023-09-19T10:00:52;66993.00;;;14.41;100.00
46614;BME280;32338;50.430;6.806;2023-09-19T10:03:30;67007.88;;;14.57;100.00
46614;BME280;32338;50.430;6.806;2023-09-19T10:05:57;67008.81;;;14.55;100.00
46614;BME280;32338;50.430;6.806;2023-09-19T10:08:34;66968.88;;;14.21;100.00
46614;BME280;32338;50.430;6.806;2023-09-19T10:11:15;66991.13;;;14.44;100.00
46614;BME280;32338;50.430;6.806;2023-09-19T10:13:45;67012.22;;;14.58;100.00
46614;BME280;32338;50.430;6.806;2023-09-19T10:16:17;67013.16;;;14.57;100.00
46614;BME280;32338;50.430;6.806;2023-09-19T10:18:46;67019.94;;;14.63;100.00
46614;BME280;32338;50.430;6.806;2023-09-19T10:21:15;67012.41;;;14.61;100.00
46614;BME280;32338;50.430;6.806;2023-09-19T10:23:48;67035.59;;;14.82;100.00
46614;BME280;32338;50.430;6.806;2023-09-19T10:26:19;67096.31;;;15.40;100.00
46614;BME280;32338;50.430;6.806;2023-09-19T10:28:50;67144.44;;;15.77;100.00
46614;BME280;32338;50.430;6.806;2023-09-19T10:31:19;67053.31;;;15.01;100.00
46614;BME280;32338;50.430;6.806;2023-09-19T10:33:49;67084.06;;;15.24;100.00
46614;BME280;32338;50.430;6.806;2023-09-19T10:36:17;67021.47;;;14.69;100.00
46614;BME280;32338;50.430;6.806;2023-09-19T10:38:47;67044.47;;;14.88;100.00
46614;BME280;32338;50.430;6.806;2023-09-19T10:41:20;67058.41;;;14.98;100.00
46614;BME280;32338;50.430;6.806;2023-09-19T10:43:51;67066.16;;;15.10;100.00
46614;BME280;32338;50.430;6.806;2023-09-19T10:46:20;67059.75;;;15.02;100.00
46614;BME280;32338;50.430;6.806;2023-09-19T10:48:46;67071.81;;;15.15;100.00
46614;BME280;32338;50.430;6.806;2023-09-19T10:51:17;67064.06;;;15.11;100.00
46614;BME280;32338;50.430;6.806;2023-09-19T10:53:50;67059.75;;;15.02;100.00
46614;BME280;32338;50.430;6.806;2023-09-19T10:56:23;67050.31;;;14.96;100.00
46614;BME280;32338;50.430;6.806;2023-09-19T10:59:08;67065.78;;;15.05;100.00
46614;BME280;32338;50.430;6.806;2023-09-19T11:01:45;67093.31;;;15.35;100.00
46614;BME280;32338;50.430;6.806;2023-09-19T11:04:24;67088.59;;;15.28;100.00
46614;BME280;32338;50.430;6.806;2023-09-19T11:07:02;67065.22;;;15.12;100.00
46614;BME280;32338;50.430;6.806;2023-09-19T11:09:47;67082.56;;;15.25;100.00
46614;BME280;32338;50.430;6.806;2023-09-19T11:21:41;67076.34;;;15.19;100.00
46614;BME280;32338;50.430;6.806;2023-09-19T11:24:32;67101.78;;;15.35;100.00
46614;BME280;32338;50.430;6.806;2023-09-19T11:27:11;67098.78;;;15.37;100.00
46614;BME280;32338;50.430;6.806;2023-09-19T11:29:39;67118.94;;;15.61;100.00
46614;BME280;32338;50.430;6.806;2023-09-19T11:32:06;67183.84;;;16.17;100.00
46614;BME280;32338;50.430;6.806;2023-09-19T11:34:45;67153.31;;;15.89;100.00
46614;BME280;32338;50.430;6.806;2023-09-19T11:40:38;67178.03;;;16.10;100.00
46614;BME280;32338;50.430;6.806;2023-09-19T11:43:30;67175.75;;;16.08;100.00
46614;BME280;32338;50.430;6.806;2023-09-19T11:46:06;67206.72;;;16.33;100.00
46614;BME280;32338;50.430;6.806;2023-09-19T11:48:33;67178.03;;;16.10;100.00
46614;BME280;32338;50.430;6.806;2023-09-19T11:51:21;67162.75;;;15.96;100.00
46614;BME280;32338;50.430;6.806;2023-09-19T11:53:54;67178.19;;;16.12;100.00
46614;BME280;32338;50.430;6.806;2023-09-19T11:56:23;67154.06;;;15.93;100.00
46614;BME280;32338;50.430;6.806;2023-09-19T11:58:53;67134.03;;;15.72;100.00
46614;BME280;32338;50.430;6.806;2023-09-19T12:01:22;67140.09;;;15.75;100.00
46614;BME280;32338;50.430;6.806;2023-09-19T12:03:53;67152.16;;;15.88;100.00
46614;BME280;32338;50.430;6.806;2023-09-19T12:06:21;67178.78;;;16.13;100.00
46614;BME280;32338;50.430;6.806;2023-09-19T12:08:49;67188.41;;;16.14;100.00
46614;BME280;32338;50.430;6.806;2023-09-19T12:11:17;67187.81;;;16.21;100.00
46614;BME280;32338;50.430;6.806;2023-09-19T12:13:47;67223.69;;;16.56;100.00
46614;BME280;32338;50.430;6.806;2023-09-19T12:16:15;67254.84;;;16.84;100.00
46614;BME280;32338;50.430;6.806;2023-09-19T12:18:43;67239.19;;;16.65;100.00
46614;BME280;32338;50.430;6.806;2023-09-19T12:21:22;67267.69;;;16.94;100.00
46614;BME280;32338;50.430;6.806;2023-09-19T12:24:03;67233.31;;;16.65;100.00
46614;BME280;32338;50.430;6.806;2023-09-19T12:26:37;67242.56;;;16.68;100.00
46614;BME280;32338;50.430;6.806;2023-09-19T12:29:11;67270.72;;;16.99;100.00
46614;BME280;32338;50.430;6.806;2023-09-19T12:31:47;67312.63;;;17.37;100.00
46614;BME280;32338;50.430;6.806;2023-09-19T12:34:16;67278.66;;;16.99;100.00
46614;BME280;32338;50.430;6.806;2023-09-19T12:36:45;67290.91;;;17.15;100.00
46614;BME280;32338;50.430;6.806;2023-09-19T12:39:22;67329.66;;;17.45;100.00
46614;BME280;32338;50.430;6.806;2023-09-19T12:41:50;67327.38;;;17.50;99.69
46614;BME280;32338;50.430;6.806;2023-09-19T12:44:20;67371.56;;;17.91;100.00
46614;BME280;32338;50.430;6.806;2023-09-19T12:46:49;67359.09;;;17.79;100.00
46614;BME280;32338;50.430;6.806;2023-09-19T12:49:17;67348.53;;;17.65;99.79
46614;BME280;32338;50.430;6.806;2023-09-19T12:51:45;67369.13;;;17.86;100.00
46614;BME280;32338;50.430;6.806;2023-09-19T12:54:12;67413.53;;;18.29;100.00
46614;BME280;32338;50.430;6.806;2023-09-19T12:56:41;67362.50;;;17.82;94.68
46614;BME280;32338;50.430;6.806;2023-09-19T12:59:10;67317.38;;;17.37;100.00
46614;BME280;32338;50.430;6.806;2023-09-19T13:01:40;67340.41;;;17.62;100.00
46614;BME280;32338;50.430;6.806;2023-09-19T13:04:15;67368.56;;;17.86;99.72
46614;BME280;32338;50.430;6.806;2023-09-19T13:06:45;67363.28;;;17.78;100.00
46614;BME280;32338;50.430;6.806;2023-09-19T13:09:14;67382.56;;;17.96;100.00
46614;BME280;32338;50.430;6.806;2023-09-19T13:11:42;67388.81;;;18.02;93.10
46614;BME280;32338;50.430;6.806;2023-09-19T13:14:18;67326.63;;;17.47;97.47
46614;BME280;32338;50.430;6.806;2023-09-19T13:16:55;67329.66;;;17.45;98.37
46614;BME280;32338;50.430;6.806;2023-09-19T13:19:35;67369.34;;;17.81;94.41